createdAt,value
2018-08-20T00:00:31.602Z,99909.97
2018-08-20T00:02:59.250Z,99902.64
2018-08-20T00:05:29.913Z,99904.67
2018-08-20T00:07:58.232Z,99908.67
2018-08-20T00:10:26.474Z,99909.33
2018-08-20T00:12:54.091Z,99920.01
2018-08-20T00:15:21.821Z,99924.33
2018-08-20T00:17:49.384Z,99935.00
2018-08-20T00:20:16.991Z,99929.16
2018-08-20T00:22:44.540Z,99928.34
2018-08-20T00:25:15.986Z,99924.52
2018-08-20T00:27:44.216Z,99927.91
2018-08-20T00:30:15.669Z,99919.83
2018-08-20T00:32:44.350Z,99918.23
2018-08-20T00:35:14.573Z,99915.99
2018-08-20T00:37:47.144Z,99913.78
2018-08-20T00:40:14.760Z,99909.66
2018-08-20T00:42:42.330Z,99907.09
2018-08-20T00:45:10.248Z,99897.44
2018-08-20T00:47:37.840Z,99902.59
2018-08-20T00:50:06.982Z,99907.98
2018-08-20T00:52:34.684Z,99905.20
2018-08-20T00:55:02.246Z,99907.42
2018-08-20T00:57:30.094Z,99912.31
2018-08-20T00:59:57.729Z,99918.05
2018-08-20T01:02:29.047Z,99905.43
2018-08-20T01:04:57.070Z,99912.69
2018-08-20T01:07:25.080Z,99904.09
2018-08-20T01:09:53.034Z,99907.09
2018-08-20T01:12:20.642Z,99909.32
2018-08-20T01:14:48.233Z,99913.58
2018-08-20T01:17:15.860Z,99909.72
2018-08-20T01:19:43.417Z,99908.31
2018-08-20T01:22:10.969Z,99914.89
2018-08-20T01:24:38.502Z,99916.98
2018-08-20T01:27:06.088Z,99927.19
2018-08-20T01:29:33.621Z,99923.98
2018-08-20T01:32:01.376Z,99923.08
2018-08-20T01:34:28.934Z,99922.86
2018-08-20T01:36:56.465Z,99924.73
2018-08-20T01:39:24.034Z,99916.91
2018-08-20T01:41:51.587Z,99923.73
2018-08-20T01:44:19.199Z,99908.22
2018-08-20T01:46:46.858Z,99921.42
2018-08-20T01:49:14.496Z,99919.25
2018-08-20T01:51:42.100Z,99920.38
2018-08-20T01:54:09.668Z,99923.41
2018-08-20T01:56:37.225Z,99929.43
2018-08-20T01:59:04.838Z,99927.23
2018-08-20T02:01:32.478Z,99927.77
2018-08-20T02:04:00.038Z,99927.52
2018-08-20T02:06:27.588Z,99927.41
2018-08-20T02:08:55.201Z,99927.16
2018-08-20T02:11:22.775Z,99935.59
2018-08-20T02:13:50.422Z,99933.72
2018-08-20T02:16:18.040Z,99932.78
2018-08-20T02:18:45.698Z,99932.53
2018-08-20T02:21:13.241Z,99934.52
2018-08-20T02:23:40.728Z,99930.95
2018-08-20T02:26:08.329Z,99916.36
2018-08-20T02:28:35.909Z,99915.27
2018-08-20T02:31:03.522Z,99920.19
2018-08-20T02:33:31.076Z,99918.84
2018-08-20T02:35:58.645Z,99917.27
2018-08-20T02:38:26.173Z,99918.08
2018-08-20T02:40:53.747Z,99919.19
2018-08-20T02:43:21.345Z,99916.36
2018-08-20T02:45:48.939Z,99921.20
2018-08-20T02:48:16.556Z,99924.23
2018-08-20T02:50:44.115Z,99921.84
2018-08-20T02:53:12.288Z,99921.89
2018-08-20T02:55:39.948Z,99921.42
2018-08-20T02:58:07.580Z,99917.81
2018-08-20T03:00:35.176Z,99917.16
2018-08-20T03:03:03.756Z,99914.85
2018-08-20T03:05:32.345Z,99918.16
2018-08-20T03:08:00.116Z,99918.08
2018-08-20T03:10:27.698Z,99926.08
2018-08-20T03:12:55.283Z,99923.06
2018-08-20T03:15:22.858Z,99929.45
2018-08-20T03:17:50.540Z,99923.41
2018-08-20T03:20:18.144Z,99927.33
2018-08-20T03:22:45.762Z,99925.08
2018-08-20T03:25:13.398Z,99934.44
2018-08-20T03:27:40.946Z,99933.61
2018-08-20T03:30:09.397Z,99932.69
2018-08-20T03:32:37.555Z,99942.77
2018-08-20T03:35:07.255Z,99935.13
2018-08-20T03:37:35.105Z,99934.84
2018-08-20T03:40:02.773Z,99934.92
2018-08-20T03:42:30.377Z,99934.70
2018-08-20T03:44:58.700Z,99938.00
2018-08-20T03:47:26.343Z,99942.45
2018-08-20T03:49:53.974Z,99942.18
2018-08-20T03:52:21.568Z,99942.73
2018-08-20T03:54:49.106Z,99942.24
2018-08-20T03:57:16.672Z,99945.94
2018-08-20T03:59:44.310Z,99946.44
2018-08-20T04:02:11.954Z,99943.05
2018-08-20T04:04:39.673Z,99946.23
2018-08-20T04:07:07.321Z,99945.56
2018-08-20T04:09:35.261Z,99952.77
2018-08-20T04:12:03.549Z,99947.39
2018-08-20T04:14:31.127Z,99943.55
2018-08-20T04:16:59.029Z,99938.44
2018-08-20T04:19:27.033Z,99944.09
2018-08-20T04:21:54.628Z,99941.23
2018-08-20T04:24:22.271Z,99945.50
2018-08-20T04:26:50.509Z,99942.24
2018-08-20T04:29:18.375Z,99948.78
2018-08-20T04:31:46.141Z,99951.39
2018-08-20T04:34:13.817Z,99949.45
2018-08-20T04:36:41.573Z,99951.28
2018-08-20T04:39:09.695Z,99952.98
2018-08-20T04:41:37.512Z,99952.55
2018-08-20T04:44:05.111Z,99954.84
2018-08-20T04:46:32.785Z,99953.31
2018-08-20T04:49:00.620Z,99953.55
2018-08-20T04:51:28.402Z,99954.14
2018-08-20T04:53:55.876Z,99956.03
2018-08-20T04:56:24.070Z,99959.30
2018-08-20T04:58:51.635Z,99961.59
2018-08-20T05:01:19.243Z,99966.48
2018-08-20T05:03:46.834Z,99965.06
2018-08-20T05:06:14.363Z,99963.52
2018-08-20T05:08:41.985Z,99960.02
2018-08-20T05:11:09.598Z,99964.91
2018-08-20T05:13:37.684Z,99964.38
2018-08-20T05:16:05.298Z,99971.44
2018-08-20T05:18:32.896Z,99969.37
2018-08-20T05:21:00.510Z,99960.64
2018-08-20T05:23:28.114Z,99970.89
2018-08-20T05:25:55.699Z,99967.13
2018-08-20T05:28:23.686Z,99963.76
2018-08-20T05:30:51.285Z,99971.80
2018-08-20T05:33:18.961Z,99972.37
2018-08-20T05:35:46.546Z,99973.48
2018-08-20T05:38:14.186Z,99976.34
2018-08-20T05:40:41.757Z,99981.00
2018-08-20T05:43:09.467Z,99983.76
2018-08-20T05:45:37.093Z,99985.17
2018-08-20T05:48:04.897Z,99981.98
2018-08-20T05:50:32.495Z,99977.14
2018-08-20T05:53:00.111Z,99983.97
2018-08-20T05:55:27.775Z,99987.31
2018-08-20T05:57:55.455Z,99992.45
2018-08-20T06:00:23.087Z,99999.09
2018-08-20T06:02:50.698Z,99999.33
2018-08-20T06:05:18.328Z,100002.21
2018-08-20T06:07:45.914Z,100002.54
2018-08-20T06:10:13.487Z,100004.78
2018-08-20T06:12:41.060Z,100012.37
2018-08-20T06:15:12.815Z,100013.37
2018-08-20T06:17:40.582Z,100017.75
2018-08-20T06:20:15.758Z,100018.86
2018-08-20T06:22:43.398Z,100017.55
2018-08-20T06:25:11.939Z,100018.97
2018-08-20T06:27:40.100Z,100023.45
2018-08-20T06:30:10.721Z,100023.47
2018-08-20T06:32:38.335Z,100030.17
2018-08-20T06:35:07.800Z,100030.30
2018-08-20T06:37:38.253Z,100028.64
2018-08-20T06:40:08.901Z,100035.75
2018-08-20T06:42:36.598Z,100038.91
2018-08-20T06:45:06.327Z,100034.71
2018-08-20T06:47:33.906Z,100042.58
2018-08-20T06:50:01.521Z,100046.06
2018-08-20T06:52:29.131Z,100051.33
2018-08-20T06:54:57.135Z,100050.19
2018-08-20T06:57:24.777Z,100057.64
2018-08-20T06:59:52.386Z,100053.27
2018-08-20T07:02:20.073Z,100058.75
2018-08-20T07:04:47.652Z,100052.16
2018-08-20T07:07:15.273Z,100060.36
2018-08-20T07:09:42.856Z,100055.75
2018-08-20T07:12:10.429Z,100060.25
2018-08-20T07:14:38.075Z,100060.02
2018-08-20T07:17:05.673Z,100061.94
2018-08-20T07:19:33.245Z,100064.31
2018-08-20T07:22:01.268Z,100069.80
2018-08-20T07:24:28.806Z,100066.98
2018-08-20T07:26:56.342Z,100073.64
2018-08-20T07:29:40.721Z,100070.05
2018-08-20T07:32:10.327Z,100071.08
2018-08-20T07:34:39.977Z,100072.27
2018-08-20T07:37:09.302Z,100076.50
2018-08-20T07:39:37.915Z,100083.02
2018-08-20T07:42:05.562Z,100077.83
2018-08-20T07:44:33.213Z,100084.97
2018-08-20T07:47:00.818Z,100081.11
2018-08-20T07:49:28.495Z,100084.91
2018-08-20T07:51:56.102Z,100078.23
2018-08-20T07:54:23.703Z,100084.14
2018-08-20T07:56:51.388Z,100074.24
2018-08-20T07:59:19.049Z,100076.41
2018-08-20T08:01:46.643Z,100081.72
2018-08-20T08:04:14.270Z,100076.47
2018-08-20T08:06:41.953Z,100074.08
2018-08-20T08:09:10.435Z,100068.85
2018-08-20T08:11:38.048Z,100071.47
2018-08-20T08:14:06.263Z,100072.84
2018-08-20T08:16:35.141Z,100061.73
2018-08-20T08:19:02.895Z,100068.61
2018-08-20T08:21:30.693Z,100074.99
2018-08-20T08:23:58.305Z,100070.21
2018-08-20T08:26:25.962Z,100071.34
2018-08-20T08:28:53.700Z,100071.22
2018-08-20T08:31:21.317Z,100067.39
2018-08-20T08:33:48.958Z,100063.83
2018-08-20T08:36:16.570Z,100063.05
2018-08-20T08:38:44.187Z,100058.35
2018-08-20T08:41:11.864Z,100066.50
2018-08-20T08:43:39.510Z,100064.69
2018-08-20T08:46:07.184Z,100067.47
2018-08-20T08:48:34.737Z,100058.05
2018-08-20T08:51:02.324Z,100060.25
2018-08-20T08:53:29.913Z,100059.47
2018-08-20T08:55:57.509Z,100052.70
2018-08-20T08:58:25.111Z,100050.19
2018-08-20T09:00:52.758Z,100048.92
2018-08-20T09:03:20.468Z,100047.52
2018-08-20T09:05:48.215Z,100045.48
2018-08-20T09:08:15.865Z,100047.42
2018-08-20T09:10:43.529Z,100047.95
2018-08-20T09:13:11.187Z,100040.60
2018-08-20T09:15:38.855Z,100042.70
2018-08-20T09:18:06.587Z,100041.63
2018-08-20T09:20:34.249Z,100042.18
2018-08-20T09:23:01.790Z,100036.81
2018-08-20T09:25:29.405Z,100041.05
2018-08-20T09:27:57.037Z,100033.72
2018-08-20T09:30:24.669Z,100026.38
2018-08-20T09:32:52.253Z,100033.36
2018-08-20T09:35:19.962Z,100033.14
2018-08-20T09:37:47.638Z,100028.34
2018-08-20T09:40:15.330Z,100031.98
2018-08-20T09:42:43.342Z,100028.27
2018-08-20T09:45:10.896Z,100030.73
2018-08-20T09:47:39.792Z,100037.19
2018-08-20T09:50:12.465Z,100033.73
2018-08-20T09:52:40.041Z,100030.83
2018-08-20T09:55:08.275Z,100034.03
2018-08-20T09:57:35.865Z,100040.63
2018-08-20T10:00:06.993Z,100026.39
2018-08-20T10:02:34.629Z,100038.47
2018-08-20T10:05:02.301Z,100028.93
2018-08-20T10:07:30.051Z,100026.17
2018-08-20T10:09:57.597Z,100022.44
2018-08-20T10:12:25.254Z,100029.69
2018-08-20T10:14:53.166Z,100019.81
2018-08-20T10:17:20.815Z,100013.75
2018-08-20T10:19:48.409Z,100017.69
2018-08-20T10:22:16.006Z,100014.46
2018-08-20T10:24:43.636Z,100016.97
2018-08-20T10:27:11.408Z,100011.58
2018-08-20T10:29:38.973Z,100016.72
2018-08-20T10:32:06.683Z,100015.81
2018-08-20T10:34:34.175Z,100013.50
2018-08-20T10:37:01.971Z,100008.09
2018-08-20T10:39:29.597Z,100018.39
2018-08-20T10:41:57.191Z,100018.27
2018-08-20T10:44:24.798Z,100010.85
2018-08-20T10:46:52.519Z,100010.72
2018-08-20T10:49:20.090Z,100017.58
2018-08-20T10:51:47.663Z,100012.35
2018-08-20T10:54:15.264Z,100015.50
2018-08-20T10:56:43.457Z,100015.45
2018-08-20T10:59:11.054Z,100015.66
2018-08-20T11:01:38.662Z,100017.59
2018-08-20T11:04:06.350Z,100031.41
2018-08-20T11:06:33.947Z,100024.27
2018-08-20T11:09:01.602Z,100031.80
2018-08-20T11:11:29.284Z,100022.61
2018-08-20T11:13:56.844Z,100029.98
2018-08-20T11:16:24.474Z,100018.44
2018-08-20T11:18:52.142Z,100018.58
2018-08-20T11:21:19.689Z,100026.43
2018-08-20T11:23:47.271Z,100014.83
2018-08-20T11:26:14.870Z,100019.70
2018-08-20T11:28:42.410Z,100017.18
2018-08-20T11:31:09.998Z,100014.07
2018-08-20T11:33:37.629Z,100027.68
2018-08-20T11:36:05.290Z,100017.84
2018-08-20T11:38:32.876Z,100026.30
2018-08-20T11:41:00.491Z,100012.19
2018-08-20T11:43:28.108Z,100026.67
2018-08-20T11:45:55.709Z,100017.59
2018-08-20T11:48:23.333Z,100009.76
2018-08-20T11:50:50.944Z,100013.49
2018-08-20T11:53:18.740Z,100009.49
2018-08-20T11:55:46.405Z,100015.00
2018-08-20T11:58:14.172Z,100014.01
2018-08-20T12:00:41.892Z,100005.64
2018-08-20T12:03:09.476Z,100007.59
2018-08-20T12:05:37.105Z,100009.53
2018-08-20T12:08:04.765Z,100025.09
2018-08-20T12:10:32.458Z,100016.72
2018-08-20T12:13:00.034Z,100011.95
2018-08-20T12:15:27.620Z,100024.74
2018-08-20T12:17:55.874Z,100014.59
2018-08-20T12:20:23.502Z,100031.00
2018-08-20T12:22:51.238Z,100029.23
2018-08-20T12:25:18.819Z,100022.67
2018-08-20T12:27:46.456Z,100020.46
2018-08-20T12:30:14.221Z,100021.56
2018-08-20T12:32:42.173Z,100021.04
2018-08-20T12:35:10.199Z,100015.05
2018-08-20T12:37:38.451Z,100030.83
2018-08-20T12:40:06.378Z,100029.78
2018-08-20T12:42:33.981Z,100025.39
2018-08-20T12:45:01.606Z,100027.98
2018-08-20T12:47:29.614Z,100023.84
2018-08-20T12:49:57.245Z,100035.52
2018-08-20T12:52:24.859Z,100024.54
2018-08-20T12:54:52.761Z,100024.08
2018-08-20T12:57:20.444Z,100029.91
2018-08-20T12:59:52.513Z,100031.90
2018-08-20T13:02:20.070Z,100032.09
2018-08-20T13:04:47.679Z,100028.50
2018-08-20T13:07:15.314Z,100040.05
2018-08-20T13:09:42.985Z,100020.97
2018-08-20T13:12:10.657Z,100021.50
2018-08-20T13:14:38.277Z,100021.58
2018-08-20T13:17:06.046Z,100010.95
2018-08-20T13:19:33.704Z,100012.70
2018-08-20T13:22:01.505Z,100007.84
2018-08-20T13:24:29.239Z,100007.67
2018-08-20T13:26:56.889Z,100014.09
2018-08-20T13:29:24.526Z,100018.81
2018-08-20T13:31:52.189Z,100015.36
2018-08-20T13:34:19.783Z,100026.20
2018-08-20T13:36:47.523Z,100020.48
2018-08-20T13:39:15.253Z,100011.98
2018-08-20T13:41:42.977Z,100015.20
2018-08-20T13:44:10.607Z,100001.80
2018-08-20T13:46:38.241Z,100008.16
2018-08-20T13:49:05.843Z,100006.83
2018-08-20T13:51:33.570Z,100004.94
2018-08-20T13:54:01.251Z,100001.45
2018-08-20T13:56:28.937Z,99993.47
2018-08-20T13:58:56.494Z,100003.80
2018-08-20T14:01:24.132Z,100002.17
2018-08-20T14:03:51.718Z,99992.78
2018-08-20T14:06:19.393Z,99997.61
2018-08-20T14:08:46.970Z,99993.62
2018-08-20T14:11:14.580Z,99986.37
2018-08-20T14:13:42.165Z,99992.63
2018-08-20T14:16:09.714Z,99991.55
2018-08-20T14:18:37.317Z,99991.68
2018-08-20T14:21:11.642Z,99990.88
2018-08-20T14:23:42.711Z,100009.78
2018-08-20T14:26:10.334Z,99990.80
2018-08-20T14:28:37.942Z,99994.72
2018-08-20T14:31:05.675Z,99988.02
2018-08-20T14:33:33.298Z,99987.17
2018-08-20T14:36:00.953Z,99994.92
2018-08-20T14:38:28.670Z,99994.48
2018-08-20T14:40:56.358Z,99982.26
2018-08-20T14:43:23.966Z,99982.09
2018-08-20T14:45:57.285Z,99978.95
2018-08-20T14:48:24.889Z,99973.58
2018-08-20T14:50:52.498Z,99975.27
2018-08-20T14:53:20.157Z,99975.22
2018-08-20T14:55:47.749Z,99993.91
2018-08-20T14:58:15.443Z,99978.73
2018-08-20T15:00:43.086Z,99985.20
2018-08-20T15:03:11.467Z,99977.53
2018-08-20T15:05:39.102Z,99989.77
2018-08-20T15:08:06.748Z,99979.33
2018-08-20T15:10:34.342Z,99987.77
2018-08-20T15:13:01.957Z,99975.84
2018-08-20T15:15:29.615Z,99967.20
2018-08-20T15:17:57.895Z,99976.56
2018-08-20T15:20:25.535Z,99965.84
2018-08-20T15:22:53.206Z,99965.91
2018-08-20T15:25:20.777Z,99972.59
2018-08-20T15:27:48.371Z,99973.19
2018-08-20T15:30:15.934Z,99970.32
2018-08-20T15:32:43.587Z,99967.55
2018-08-20T15:35:11.271Z,99970.87
2018-08-20T15:37:38.909Z,99977.11
2018-08-20T15:40:06.627Z,99974.88
2018-08-20T15:42:34.279Z,99971.06
2018-08-20T15:45:01.900Z,99976.41
2018-08-20T15:47:29.503Z,99982.06
2018-08-20T15:49:57.152Z,99979.06
2018-08-20T15:52:24.823Z,99984.02
2018-08-20T15:54:52.760Z,99985.36
2018-08-20T15:57:20.572Z,99981.84
2018-08-20T15:59:48.257Z,99975.46
2018-08-20T16:02:15.982Z,99983.08
2018-08-20T16:04:43.666Z,99984.96
2018-08-20T16:07:11.333Z,99991.72
2018-08-20T16:09:39.045Z,99986.25
2018-08-20T16:12:06.899Z,99993.02
2018-08-20T16:14:34.563Z,99992.39
2018-08-20T16:17:02.305Z,99982.78
2018-08-20T16:19:29.904Z,99989.72
2018-08-20T16:21:57.860Z,99987.43
2018-08-20T16:24:25.463Z,99988.53
2018-08-20T16:26:53.097Z,99986.36
2018-08-20T16:29:20.678Z,99986.25
2018-08-20T16:31:48.397Z,99981.33
2018-08-20T16:34:16.080Z,99990.04
2018-08-20T16:36:43.786Z,99992.69
2018-08-20T16:39:12.383Z,99988.26
2018-08-20T16:41:40.050Z,99987.47
2018-08-20T16:44:08.746Z,99990.88
2018-08-20T16:46:36.646Z,99990.16
2018-08-20T16:49:04.696Z,99992.79
2018-08-20T16:51:32.371Z,99995.77
2018-08-20T16:53:59.967Z,99993.46
2018-08-20T16:56:27.611Z,99995.73
2018-08-20T16:58:55.299Z,99997.19
2018-08-20T17:01:22.929Z,99996.42
2018-08-20T17:03:50.614Z,99988.91
2018-08-20T17:06:18.447Z,99983.91
2018-08-20T17:08:46.164Z,99995.94
2018-08-20T17:11:15.710Z,99996.27
2018-08-20T17:13:43.610Z,99998.97
2018-08-20T17:16:14.459Z,99997.74
2018-08-20T17:18:42.082Z,100001.47
2018-08-20T17:21:09.875Z,100001.23
2018-08-20T17:23:37.563Z,99999.55
2018-08-20T17:26:06.224Z,99998.25
2018-08-20T17:28:33.904Z,100017.27
2018-08-20T17:31:05.901Z,100005.34
2018-08-20T17:33:34.431Z,100007.50
2018-08-20T17:36:02.069Z,100005.20
2018-08-20T17:38:29.752Z,100005.10
2018-08-20T17:40:57.327Z,100015.77
2018-08-20T17:43:25.065Z,100020.06
2018-08-20T17:45:55.250Z,100021.89
2018-08-20T17:48:28.904Z,100021.92
2018-08-20T17:50:57.064Z,100027.05
2018-08-20T17:53:35.614Z,100035.23
2018-08-20T17:56:04.268Z,100037.31
2018-08-20T17:58:31.970Z,100043.28
2018-08-20T18:01:00.287Z,100037.33
2018-08-20T18:03:28.536Z,100045.47
2018-08-20T18:06:01.465Z,100041.98
2018-08-20T18:08:30.706Z,100046.39
2018-08-20T18:10:58.749Z,100041.47
2018-08-20T18:13:45.047Z,100048.48
2018-08-20T18:16:13.927Z,100049.09
2018-08-20T18:18:43.369Z,100049.40
2018-08-20T18:21:11.050Z,100052.02
2018-08-20T18:23:38.761Z,100055.70
2018-08-20T18:26:06.838Z,100052.59
2018-08-20T18:28:42.277Z,100059.31
2018-08-20T18:31:14.692Z,100061.77
2018-08-20T18:33:43.768Z,100058.53
2018-08-20T18:36:21.833Z,100054.55
2018-08-20T18:38:51.720Z,100056.82
2018-08-20T18:41:22.155Z,100065.90
2018-08-20T18:43:49.995Z,100059.05
2018-08-20T18:46:17.681Z,100059.69
2018-08-20T18:48:45.350Z,100064.09
2018-08-20T18:51:15.721Z,100073.95
2018-08-20T18:53:43.627Z,100077.58
2018-08-20T18:56:14.927Z,100077.95
2018-08-20T18:58:43.668Z,100076.11
2018-08-20T19:01:11.903Z,100077.35
2018-08-20T19:03:45.462Z,100072.19
2018-08-20T19:06:14.277Z,100069.22
2018-08-20T19:08:42.388Z,100078.98
2018-08-20T19:11:10.816Z,100073.75
2018-08-20T19:13:38.780Z,100074.77
2018-08-20T19:16:25.798Z,100076.11
2018-08-20T19:18:53.881Z,100081.53
2018-08-20T19:21:25.665Z,100080.66
2018-08-20T19:23:55.066Z,100078.14
2018-08-20T19:26:22.818Z,100073.15
2018-08-20T19:28:50.502Z,100081.27
2018-08-20T19:31:18.210Z,100079.05
2018-08-20T19:33:45.984Z,100083.72
2018-08-20T19:36:13.952Z,100082.20
2018-08-20T19:38:41.776Z,100083.64
2018-08-20T19:41:12.566Z,100088.11
2018-08-20T19:43:50.792Z,100091.78
2018-08-20T19:46:29.063Z,100088.22
2018-08-20T19:49:03.060Z,100079.25
2018-08-20T19:51:33.427Z,100084.27
2018-08-20T19:54:01.243Z,100080.58
2018-08-20T19:56:29.231Z,100093.55
2018-08-20T19:58:57.010Z,100095.48
2018-08-20T20:01:24.926Z,100100.24
2018-08-20T20:03:52.976Z,100093.30
2018-08-20T20:06:21.211Z,100097.18
2018-08-20T20:08:48.862Z,100099.13
2018-08-20T20:11:23.507Z,100102.03
2018-08-20T20:13:55.807Z,100103.42
2018-08-20T20:16:23.794Z,100095.13
2018-08-20T20:18:51.888Z,100097.80
2018-08-20T20:21:20.259Z,100099.56
2018-08-20T20:23:48.015Z,100099.74
2018-08-20T20:26:15.883Z,100104.04
2018-08-20T20:28:45.941Z,100100.48
2018-08-20T20:31:13.667Z,100104.25
2018-08-20T20:33:41.378Z,100112.20
2018-08-20T20:36:15.264Z,100111.37
2018-08-20T20:38:43.408Z,100110.63
2018-08-20T20:41:11.099Z,100108.59
2018-08-20T20:43:38.713Z,100105.74
2018-08-20T20:46:08.220Z,100111.33
2018-08-20T20:48:36.120Z,100117.45
2018-08-20T20:51:03.894Z,100121.20
2018-08-20T20:53:31.655Z,100119.48
2018-08-20T20:55:59.299Z,100112.71
2018-08-20T20:58:32.917Z,100126.56
2018-08-20T21:01:01.958Z,100127.86
2018-08-20T21:03:29.987Z,100123.69
2018-08-20T21:05:57.638Z,100130.98
2018-08-20T21:08:32.237Z,100125.73
2018-08-20T21:10:59.906Z,100125.17
2018-08-20T21:16:08.192Z,100131.92
2018-08-20T21:18:53.573Z,100137.73
2018-08-20T21:21:22.118Z,100135.93
2018-08-20T21:23:49.990Z,100136.25
2018-08-20T21:26:17.746Z,100139.13
2018-08-20T21:28:49.734Z,100142.44
2018-08-20T21:31:18.681Z,100140.41
2018-08-20T21:33:46.826Z,100136.99
2018-08-20T21:36:14.952Z,100138.43
2018-08-20T21:38:43.166Z,100137.65
2018-08-20T21:41:10.836Z,100138.43
2018-08-20T21:43:44.443Z,100132.76
2018-08-20T21:46:12.476Z,100137.50
2018-08-20T21:48:40.593Z,100141.47
2018-08-20T21:51:17.183Z,100147.72
2018-08-20T21:53:44.952Z,100150.12
2018-08-20T21:56:12.978Z,100152.61
2018-08-20T21:58:42.653Z,100153.94
2018-08-20T22:01:12.108Z,100157.18
2018-08-20T22:03:40.690Z,100157.36
2018-08-20T22:06:08.483Z,100160.55
2018-08-20T22:08:36.460Z,100158.33
2018-08-20T22:11:04.204Z,100157.27
2018-08-20T22:13:31.889Z,100154.27
2018-08-20T22:16:21.945Z,100153.99
2018-08-20T22:18:54.488Z,100155.79
2018-08-20T22:21:22.285Z,100147.48
2018-08-20T22:23:50.033Z,100163.44
2018-08-20T22:26:19.455Z,100165.68
2018-08-20T22:28:49.706Z,100162.95
2018-08-20T22:31:17.692Z,100167.06
2018-08-20T22:33:54.701Z,100170.06
2018-08-20T22:36:22.350Z,100168.35
2018-08-20T22:38:54.558Z,100173.98
2018-08-20T22:41:23.388Z,100164.84
2018-08-20T22:43:50.953Z,100174.33
2018-08-20T22:46:19.755Z,100181.61
2018-08-20T22:48:50.577Z,100183.33
2018-08-20T22:51:18.925Z,100182.63
2018-08-20T22:53:56.241Z,100188.60
2018-08-20T22:56:30.812Z,100182.81
2018-08-20T22:59:02.436Z,100176.23
2018-08-20T23:04:04.842Z,100178.72
2018-08-20T23:06:32.443Z,100181.91
2018-08-20T23:09:22.345Z,100180.70
2018-08-20T23:11:49.981Z,100186.37
2018-08-20T23:14:17.515Z,100185.55
2018-08-20T23:16:48.550Z,100190.59
2018-08-20T23:19:16.365Z,100188.17
2018-08-20T23:21:45.442Z,100186.19
2018-08-20T23:24:14.012Z,100184.91
2018-08-20T23:26:41.957Z,100191.28
2018-08-20T23:29:09.898Z,100195.52
2018-08-20T23:31:37.960Z,100199.47
2018-08-20T23:34:10.990Z,100196.47
2018-08-20T23:36:39.018Z,100207.82
2018-08-20T23:39:10.870Z,100204.31
2018-08-20T23:41:38.749Z,100205.76
2018-08-20T23:44:06.662Z,100204.11
2018-08-20T23:46:39.945Z,100200.33
2018-08-20T23:49:07.836Z,100202.55
2018-08-20T23:51:35.500Z,100204.72
2018-08-20T23:54:03.139Z,100208.55
2018-08-20T23:56:31.057Z,100211.37
2018-08-20T23:58:59.116Z,100207.16
